Time;durP1;ratioP1;P1;durP2;ratioP2;P2;SDS_P1;SDS_P2;PMS_P1;PMS_P2;Temp;Humidity;BMP_temperature;BMP_pressure;BME280_temperature;BME280_humidity;BME280_pressure;Samples;Min_cycle;Max_cycle;Signal;HPM_P1;HPM_P2
2023/10/17 00:00:53;;;;;;;3.25;3.15;;;;;;;;;;5984809;29;20053;-88
2023/10/17 00:03:55;;;;;;;3.55;3.45;;;;;;;;;;5991011;29;20808;-89
2023/10/17 00:07:02;;;;;;;12.10;5.03;;;;;;;;;;5994292;29;20077;-89
2023/10/17 00:10:08;;;;;;;3.75;3.65;;;;;;;;;;5980507;29;20047;-88
2023/10/17 00:16:33;;;;;;;3.75;3.65;;;;;;;;;;5980383;29;20046;-89
2023/10/17 00:19:34;;;;;;;4.97;4.78;;;;;;;;;;5981758;29;20057;-88
2023/10/17 00:22:36;;;;;;;4.20;4.10;;;;;;;;;;6000229;29;20148;-89
2023/10/17 00:25:42;;;;;;;3.83;3.72;;;;;;;;;;5993067;29;20042;-88
2023/10/17 00:28:45;;;;;;;4.43;4.13;;;;;;;;;;5990392;29;20043;-88
2023/10/17 00:31:47;;;;;;;4.05;3.95;;;;;;;;;;5984696;29;20054;-89
2023/10/17 00:34:49;;;;;;;3.50;3.30;;;;;;;;;;5993468;29;20369;-89
2023/10/17 00:37:57;;;;;;;4.32;4.03;;;;;;;;;;6000939;29;20141;-88
2023/10/17 00:41:00;;;;;;;4.57;4.38;;;;;;;;;;5981941;29;20054;-88
2023/10/17 00:44:02;;;;;;;5.07;4.78;;;;;;;;;;5983888;29;20497;-89
2023/10/17 00:47:05;;;;;;;4.45;4.25;;;;;;;;;;5974527;29;20055;-89
2023/10/17 00:50:12;;;;;;;4.75;4.40;;;;;;;;;;5979615;29;20058;-89
2023/10/17 00:53:15;;;;;;;4.80;4.63;;;;;;;;;;5980735;29;20103;-89
2023/10/17 00:56:17;;;;;;;3.63;3.53;;;;;;;;;;5984486;29;20169;-89
2023/10/17 00:59:24;;;;;;;4.53;4.30;;;;;;;;;;5990578;29;20050;-89
2023/10/17 01:02:29;;;;;;;4.10;4.00;;;;;;;;;;5988238;29;20050;-89
2023/10/17 01:05:40;;;;;;;4.05;3.85;;;;;;;;;;5979335;29;20057;-89
2023/10/17 01:08:44;;;;;;;4.07;3.97;;;;;;;;;;5981942;29;20050;-89
2023/10/17 01:11:47;;;;;;;3.67;3.58;;;;;;;;;;5985725;29;20443;-88
2023/10/17 01:14:49;;;;;;;3.45;3.35;;;;;;;;;;5979384;29;20091;-89
2023/10/17 01:17:54;;;;;;;3.90;3.80;;;;;;;;;;5980846;29;20493;-89
2023/10/17 01:20:56;;;;;;;3.63;3.53;;;;;;;;;;5990746;29;20102;-89
2023/10/17 01:23:58;;;;;;;3.88;3.78;;;;;;;;;;5979296;29;20057;-88
2023/10/17 01:27:06;;;;;;;3.60;3.50;;;;;;;;;;5985156;29;20424;-88
2023/10/17 01:30:08;;;;;;;3.45;3.35;;;;;;;;;;5989705;29;20042;-90
2023/10/17 01:33:12;;;;;;;3.40;3.30;;;;;;;;;;5997772;29;20409;-90
2023/10/17 01:36:16;;;;;;;3.80;3.70;;;;;;;;;;5979696;29;20536;-89
2023/10/17 01:39:20;;;;;;;3.95;3.75;;;;;;;;;;5987457;29;20062;-89
2023/10/17 01:42:22;;;;;;;3.85;3.75;;;;;;;;;;5991345;29;20057;-89
2023/10/17 01:45:25;;;;;;;3.83;3.72;;;;;;;;;;5978226;29;20042;-89
2023/10/17 01:48:27;;;;;;;5.93;5.72;;;;;;;;;;5981990;29;20511;-89
2023/10/17 01:51:29;;;;;;;4.30;4.20;;;;;;;;;;5988723;29;20042;-90
2023/10/17 01:54:32;;;;;;;3.38;3.28;;;;;;;;;;5981140;29;20490;-90
2023/10/17 01:57:34;;;;;;;3.78;3.67;;;;;;;;;;5987413;29;20046;-90
2023/10/17 02:00:38;;;;;;;4.07;3.97;;;;;;;;;;5996432;29;20120;-89
2023/10/17 02:03:40;;;;;;;3.30;3.20;;;;;;;;;;5977560;29;20069;-90
2023/10/17 02:06:43;;;;;;;4.30;4.20;;;;;;;;;;5983509;29;20458;-89
2023/10/17 02:09:45;;;;;;;4.00;3.90;;;;;;;;;;5982755;29;20095;-89
2023/10/17 02:12:48;;;;;;;3.78;3.67;;;;;;;;;;5994881;29;20054;-90
2023/10/17 02:15:50;;;;;;;3.60;3.50;;;;;;;;;;5981626;29;20573;-90
2023/10/17 02:18:54;;;;;;;4.13;3.92;;;;;;;;;;5978651;29;20428;-90
2023/10/17 02:21:58;;;;;;;3.90;3.78;;;;;;;;;;5993070;29;20049;-90
2023/10/17 02:25:00;;;;;;;4.32;4.15;;;;;;;;;;5990053;29;20061;-90
2023/10/17 02:28:02;;;;;;;5.78;5.40;;;;;;;;;;5977592;29;20053;-90
2023/10/17 02:31:03;;;;;;;4.88;4.68;;;;;;;;;;5982460;29;20049;-90
2023/10/17 02:34:09;;;;;;;5.55;5.15;;;;;;;;;;5986444;29;20076;-90
2023/10/17 02:37:11;;;;;;;3.90;3.80;;;;;;;;;;5985041;29;20576;-90
2023/10/17 02:40:23;;;;;;;5.45;5.13;;;;;;;;;;5980355;29;20069;-91
2023/10/17 02:43:24;;;;;;;3.80;3.67;;;;;;;;;;5964638;29;20058;-90
2023/10/17 02:46:26;;;;;;;3.70;3.60;;;;;;;;;;5991663;29;20065;-90
2023/10/17 02:49:36;;;;;;;3.97;3.80;;;;;;;;;;5987541;29;20060;-90
2023/10/17 02:52:38;;;;;;;3.90;3.80;;;;;;;;;;6001224;29;20056;-90
2023/10/17 02:55:40;;;;;;;3.97;3.88;;;;;;;;;;6001327;29;20306;-91
2023/10/17 02:58:42;;;;;;;5.32;5.03;;;;;;;;;;5964794;29;20059;-90
2023/10/17 03:01:43;;;;;;;4.57;4.38;;;;;;;;;;5981258;29;20057;-91
2023/10/17 03:04:45;;;;;;;4.07;3.92;;;;;;;;;;5991105;29;20045;-91
2023/10/17 03:07:53;;;;;;;4.22;4.03;;;;;;;;;;5980109;29;20058;-91
2023/10/17 03:10:58;;;;;;;3.53;3.42;;;;;;;;;;5980980;29;20058;-90
2023/10/17 03:14:00;;;;;;;4.25;4.05;;;;;;;;;;5986535;29;20062;-91
2023/10/17 03:17:02;;;;;;;3.65;3.55;;;;;;;;;;5987367;29;20042;-90
2023/10/17 03:20:07;;;;;;;5.68;5.28;;;;;;;;;;5984067;29;20520;-90
2023/10/17 03:23:10;;;;;;;3.95;3.75;;;;;;;;;;5995349;29;20054;-90
2023/10/17 03:26:12;;;;;;;4.45;4.28;;;;;;;;;;5985709;29;20686;-90
2023/10/17 03:29:14;;;;;;;4.18;4.07;;;;;;;;;;6005359;29;20061;-91
2023/10/17 03:32:16;;;;;;;4.47;4.18;;;;;;;;;;5995514;29;20489;-91
2023/10/17 03:35:21;;;;;;;5.05;4.82;;;;;;;;;;5994609;29;20062;-91
2023/10/17 03:38:26;;;;;;;3.45;3.35;;;;;;;;;;6002210;29;20054;-91
2023/10/17 03:41:28;;;;;;;4.70;4.50;;;;;;;;;;5993172;29;20186;-91
2023/10/17 03:44:30;;;;;;;4.72;4.53;;;;;;;;;;5994018;29;20429;-92
2023/10/17 03:47:32;;;;;;;5.22;4.93;;;;;;;;;;5993388;29;20521;-90
2023/10/17 03:53:47;;;;;;;4.13;3.97;;;;;;;;;;5995644;29;20417;-90
2023/10/17 03:56:55;;;;;;;5.03;4.57;;;;;;;;;;5983427;29;20046;-91
2023/10/17 03:59:58;;;;;;;5.20;4.90;;;;;;;;;;5996757;29;20491;-91
2023/10/17 04:03:04;;;;;;;4.97;4.32;;;;;;;;;;6004694;29;20520;-91
2023/10/17 04:09:26;;;;;;;4.70;4.50;;;;;;;;;;5984810;29;20148;-90
2023/10/17 04:15:48;;;;;;;4.63;4.43;;;;;;;;;;5993735;29;20046;-91
2023/10/17 04:22:15;;;;;;;;;;;;;;;;;;6006328;29;20106;-92
2023/10/17 04:25:34;;;;;;;4.07;3.95;;;;;;;;;;5995457;29;20383;-92
2023/10/17 04:28:41;;;;;;;5.15;4.93;;;;;;;;;;5981514;29;20051;-93
2023/10/17 04:31:47;;;;;;;6.10;4.47;;;;;;;;;;5997084;29;20080;-92
2023/10/17 04:34:49;;;;;;;4.82;4.63;;;;;;;;;;5995120;29;20054;-93
2023/10/17 04:38:11;;;;;;;5.70;5.38;;;;;;;;;;5986952;29;20053;-93
2023/10/17 04:41:40;;;;;;;5.97;5.60;;;;;;;;;;5981753;29;20113;-92
2023/10/17 04:45:03;;;;;;;4.70;4.50;;;;;;;;;;5986050;29;20078;-92
2023/10/17 04:48:16;;;;;;;4.30;4.15;;;;;;;;;;5992134;29;20046;-92
2023/10/17 05:04:33;;;;;;;4.95;4.75;;;;;;;;;;5983169;29;20046;-94
2023/10/17 06:17:53;;;;;;;5.68;5.18;;;;;;;;;;5996575;29;20077;-93
2023/10/17 06:30:49;;;;;;;4.75;4.55;;;;;;;;;;5982415;29;20471;-94
2023/10/17 06:33:55;;;;;;;4.65;4.45;;;;;;;;;;5990794;29;20050;-94
2023/10/17 06:37:01;;;;;;;5.32;5.03;;;;;;;;;;5983517;29;20061;-93
2023/10/17 06:40:12;;;;;;;5.18;4.93;;;;;;;;;;5985120;29;20046;-94
2023/10/17 06:43:17;;;;;;;4.15;4.00;;;;;;;;;;5981055;29;20180;-94
2023/10/17 06:46:29;;;;;;;4.97;4.78;;;;;;;;;;5981269;29;20035;-94
2023/10/17 06:55:58;;;;;;;4.32;4.22;;;;;;;;;;5993602;29;20053;-94
2023/10/17 06:59:14;;;;;;;4.45;4.18;;;;;;;;;;5985846;29;20469;-94
2023/10/17 07:02:18;;;;;;;4.28;4.07;;;;;;;;;;5998885;29;20117;-93
2023/10/17 07:05:24;;;;;;;4.85;4.47;;;;;;;;;;5985579;29;20137;-94
2023/10/17 07:08:36;;;;;;;4.38;4.13;;;;;;;;;;5980927;29;20594;-94
2023/10/17 07:11:38;;;;;;;3.08;2.97;;;;;;;;;;5990071;29;20061;-94
2023/10/17 07:14:47;;;;;;;3.85;3.75;;;;;;;;;;5981262;29;20047;-94
2023/10/17 07:17:54;;;;;;;4.43;4.10;;;;;;;;;;5988939;29;20050;-94
2023/10/17 07:24:20;;;;;;;4.43;4.22;;;;;;;;;;5983692;29;20511;-94
2023/10/17 07:27:27;;;;;;;4.05;3.85;;;;;;;;;;5989904;29;20042;-93
2023/10/17 07:30:35;;;;;;;4.30;4.00;;;;;;;;;;5989675;29;20114;-93
2023/10/17 07:33:41;;;;;;;3.47;3.38;;;;;;;;;;5989820;29;20045;-94
2023/10/17 07:36:44;;;;;;;5.30;5.05;;;;;;;;;;5979396;29;20054;-94
2023/10/17 07:43:07;;;;;;;3.90;3.80;;;;;;;;;;5980603;29;20049;-95
2023/10/17 07:46:17;;;;;;;3.95;3.85;;;;;;;;;;5991500;29;20425;-94
2023/10/17 07:49:26;;;;;;;4.07;3.97;;;;;;;;;;5979988;29;20062;-94
2023/10/17 07:52:38;;;;;;;5.63;5.28;;;;;;;;;;5979291;29;20162;-94
2023/10/17 07:55:46;;;;;;;4.82;4.55;;;;;;;;;;5980414;29;20050;-94
2023/10/17 07:58:56;;;;;;;4.05;3.55;;;;;;;;;;5980761;29;20058;-93
2023/10/17 08:02:00;;;;;;;3.92;3.75;;;;;;;;;;5984279;29;20592;-95
2023/10/17 08:05:16;;;;;;;4.60;4.40;;;;;;;;;;6006794;29;20069;-94
2023/10/17 08:08:20;;;;;;;4.90;4.60;;;;;;;;;;6002998;29;20052;-93
2023/10/17 08:11:31;;;;;;;5.07;4.88;;;;;;;;;;5996164;29;20378;-93
2023/10/17 08:14:44;;;;;;;5.13;4.80;;;;;;;;;;5982583;29;20047;-94
2023/10/17 08:17:48;;;;;;;4.75;4.55;;;;;;;;;;5994595;29;20191;-93
2023/10/17 08:24:06;;;;;;;4.10;3.90;;;;;;;;;;5994087;29;20218;-93
2023/10/17 08:30:25;;;;;;;4.97;4.68;;;;;;;;;;5983145;29;20085;-92
2023/10/17 08:34:51;;;;;;;;;;;;;;;;;;;;;
2023/10/17 08:37:10;;;;;;;5.25;4.88;;;;;;;;;;6025283;29;20064;-92
2023/10/17 08:40:32;;;;;;;4.40;4.07;;;;;;;;;;6020259;29;20508;-92
2023/10/17 08:43:36;;;;;;;5.43;5.13;;;;;;;;;;6006958;29;20136;-92
2023/10/17 08:46:38;;;;;;;5.45;4.93;;;;;;;;;;6025527;29;20061;-92
2023/10/17 08:49:43;;;;;;;4.40;4.03;;;;;;;;;;6025035;29;20379;-92
2023/10/17 08:52:46;;;;;;;4.80;4.60;;;;;;;;;;6005366;29;20053;-92
2023/10/17 08:55:48;;;;;;;3.83;3.70;;;;;;;;;;6009351;29;20061;-92
2023/10/17 08:59:03;;;;;;;4.70;4.45;;;;;;;;;;6025067;29;20594;-92
2023/10/17 09:02:16;;;;;;;3.92;3.72;;;;;;;;;;6024910;29;20583;-92
2023/10/17 09:05:29;;;;;;;4.93;3.97;;;;;;;;;;6025181;29;20504;-91
2023/10/17 09:12:01;;;;;;;4.75;4.47;;;;;;;;;;6024622;29;20193;-91
2023/10/17 09:15:05;;;;;;;4.43;4.22;;;;;;;;;;6009102;29;20534;-92
2023/10/17 09:18:07;;;;;;;5.65;5.35;;;;;;;;;;5985440;29;20058;-90
2023/10/17 09:21:13;;;;;;;4.47;4.28;;;;;;;;;;5991803;29;20765;-91
2023/10/17 09:24:35;;;;;;;5.38;4.90;;;;;;;;;;5992149;29;20460;-90
2023/10/17 09:27:37;;;;;;;6.03;5.57;;;;;;;;;;5985850;29;20048;-91
2023/10/17 09:30:55;;;;;;;4.30;3.83;;;;;;;;;;5989905;29;20174;-90
2023/10/17 09:34:04;;;;;;;5.03;4.70;;;;;;;;;;5990731;29;20577;-90
2023/10/17 09:37:12;;;;;;;5.50;5.18;;;;;;;;;;5982137;29;20549;-90
2023/10/17 09:40:30;;;;;;;4.85;4.30;;;;;;;;;;5992712;29;20046;-90
2023/10/17 09:43:33;;;;;;;4.00;3.80;;;;;;;;;;5981345;29;20493;-90
2023/10/17 09:46:35;;;;;;;4.28;4.07;;;;;;;;;;5994701;29;20073;-90
2023/10/17 09:49:48;;;;;;;3.85;3.63;;;;;;;;;;5993077;29;20059;-90
2023/10/17 09:52:53;;;;;;;4.53;4.32;;;;;;;;;;5992233;29;20038;-90
2023/10/17 09:55:55;;;;;;;4.85;4.50;;;;;;;;;;5989959;29;20054;-90
2023/10/17 09:59:05;;;;;;;3.63;3.35;;;;;;;;;;5981272;29;20053;-89
2023/10/17 10:02:10;;;;;;;4.03;3.90;;;;;;;;;;5980760;29;20061;-89
2023/10/17 10:05:18;;;;;;;5.25;5.00;;;;;;;;;;5981909;29;21008;-89
2023/10/17 10:08:32;;;;;;;4.32;4.13;;;;;;;;;;5991991;29;20574;-90
2023/10/17 10:11:50;;;;;;;4.18;3.97;;;;;;;;;;5989403;29;20085;-89
2023/10/17 10:14:52;;;;;;;6.57;4.35;;;;;;;;;;5981574;29;20049;-89
2023/10/17 10:17:55;;;;;;;3.95;3.85;;;;;;;;;;5981723;29;20528;-89
2023/10/17 10:20:57;;;;;;;4.45;4.25;;;;;;;;;;5993686;29;20401;-89
2023/10/17 10:23:59;;;;;;;4.95;4.63;;;;;;;;;;5985771;29;20054;-89
2023/10/17 10:27:11;;;;;;;5.25;4.93;;;;;;;;;;5985966;29;20675;-89
2023/10/17 10:30:32;;;;;;;4.72;4.53;;;;;;;;;;5983582;29;20065;-89
2023/10/17 10:33:35;;;;;;;;;;;;;;;;;;5991527;29;20527;-89
2023/10/17 10:36:37;;;;;;;5.97;5.00;;;;;;;;;;5980422;29;20311;-88
2023/10/17 10:39:39;;;;;;;4.35;4.15;;;;;;;;;;5993433;29;20503;-88
2023/10/17 10:42:45;;;;;;;5.97;5.65;;;;;;;;;;5987776;29;20046;-88
2023/10/17 10:45:55;;;;;;;4.40;4.25;;;;;;;;;;5989239;29;20054;-88
2023/10/17 10:48:57;;;;;;;6.57;5.03;;;;;;;;;;5979787;29;20050;-88
2023/10/17 10:52:00;;;;;;;6.25;5.72;;;;;;;;;;5981291;29;20078;-88
2023/10/17 10:55:01;;;;;;;4.82;4.57;;;;;;;;;;5991949;29;20053;-88
2023/10/17 10:58:03;;;;;;;6.38;5.97;;;;;;;;;;5980398;29;20161;-88
2023/10/17 11:01:07;;;;;;;6.75;6.18;;;;;;;;;;5981206;29;20053;-88
2023/10/17 11:04:12;;;;;;;6.10;5.70;;;;;;;;;;5993088;29;20074;-88
2023/10/17 11:07:18;;;;;;;5.75;5.20;;;;;;;;;;5985958;29;20038;-88
2023/10/17 11:10:20;;;;;;;4.97;4.78;;;;;;;;;;5993529;29;20049;-88
2023/10/17 11:13:29;;;;;;;4.28;4.07;;;;;;;;;;5979915;29;20050;-88
2023/10/17 11:16:31;;;;;;;6.72;6.25;;;;;;;;;;5990904;29;20065;-88
2023/10/17 11:19:33;;;;;;;6.57;5.85;;;;;;;;;;5981787;29;20053;-88
2023/10/17 11:22:38;;;;;;;10.85;5.45;;;;;;;;;;5990568;29;20057;-88
2023/10/17 11:25:44;;;;;;;6.03;5.63;;;;;;;;;;5989475;29;20451;-89
2023/10/17 11:28:52;;;;;;;4.93;4.72;;;;;;;;;;5979546;29;20046;-88
2023/10/17 11:31:55;;;;;;;6.10;5.70;;;;;;;;;;5980901;29;20046;-88
2023/10/17 11:35:11;;;;;;;6.13;5.68;;;;;;;;;;5989724;29;20141;-88
2023/10/17 11:38:22;;;;;;;5.88;5.40;;;;;;;;;;5987637;29;20461;-88
2023/10/17 11:41:46;;;;;;;9.55;5.38;;;;;;;;;;5984804;29;20054;-88
2023/10/17 11:44:46;;;;;;;6.03;5.72;;;;;;;;;;5995878;29;20798;-88
2023/10/17 11:47:50;;;;;;;4.57;4.30;;;;;;;;;;5994668;29;20538;-88
2023/10/17 11:51:15;;;;;;;5.07;4.68;;;;;;;;;;5995014;29;20045;-87
2023/10/17 11:54:22;;;;;;;6.28;5.78;;;;;;;;;;5999152;29;20050;-88
2023/10/17 11:57:35;;;;;;;4.93;4.72;;;;;;;;;;5994401;29;20062;-88
2023/10/17 12:00:37;;;;;;;5.38;5.05;;;;;;;;;;5992205;29;20129;-87
2023/10/17 12:03:41;;;;;;;4.78;4.57;;;;;;;;;;5989458;29;20083;-88
2023/10/17 12:06:45;;;;;;;5.55;5.25;;;;;;;;;;5984303;29;20136;-88
2023/10/17 12:09:52;;;;;;;6.13;5.72;;;;;;;;;;5998812;29;20045;-88
2023/10/17 12:13:06;;;;;;;6.13;5.72;;;;;;;;;;5983707;29;20064;-88
2023/10/17 12:16:11;;;;;;;5.25;5.00;;;;;;;;;;5986223;29;20532;-88
2023/10/17 12:19:13;;;;;;;5.60;5.30;;;;;;;;;;6002542;29;20118;-88
2023/10/17 12:22:15;;;;;;;6.80;5.57;;;;;;;;;;5982353;29;20386;-88
2023/10/17 12:25:22;;;;;;;5.85;5.45;;;;;;;;;;5998453;29;20225;-88
2023/10/17 12:28:26;;;;;;;5.40;4.72;;;;;;;;;;5989509;29;20050;-88
2023/10/17 12:31:28;;;;;;;6.32;5.93;;;;;;;;;;5995151;29;20046;-88
2023/10/17 12:34:30;;;;;;;6.22;5.82;;;;;;;;;;5989481;29;20069;-89
2023/10/17 12:37:43;;;;;;;5.10;4.80;;;;;;;;;;5988677;29;20046;-88
2023/10/17 12:40:45;;;;;;;5.43;4.85;;;;;;;;;;5985277;29;20053;-89
2023/10/17 12:43:50;;;;;;;5.38;4.97;;;;;;;;;;5988176;29;20421;-88
2023/10/17 12:46:51;;;;;;;6.53;6.13;;;;;;;;;;5993470;29;20042;-88
2023/10/17 12:49:53;;;;;;;5.07;4.72;;;;;;;;;;5984589;29;20057;-88
2023/10/17 12:52:55;;;;;;;5.32;4.25;;;;;;;;;;5998551;29;20046;-88
2023/10/17 12:55:57;;;;;;;4.35;4.10;;;;;;;;;;6003514;29;20054;-88
2023/10/17 12:59:00;;;;;;;4.95;4.63;;;;;;;;;;6000520;29;20090;-88
2023/10/17 13:02:01;;;;;;;4.53;4.32;;;;;;;;;;5994607;29;20049;-88
2023/10/17 13:05:05;;;;;;;4.50;4.30;;;;;;;;;;5992788;29;20046;-89
2023/10/17 13:08:07;;;;;;;5.95;4.13;;;;;;;;;;5987180;29;20049;-89
2023/10/17 13:11:09;;;;;;;5.15;4.85;;;;;;;;;;5987916;29;20101;-89
2023/10/17 13:14:11;;;;;;;5.50;5.10;;;;;;;;;;5998242;29;20065;-89
2023/10/17 13:17:14;;;;;;;5.00;4.78;;;;;;;;;;5990338;29;20046;-88
2023/10/17 13:20:21;;;;;;;5.05;4.75;;;;;;;;;;5984310;29;20050;-89
2023/10/17 13:23:44;;;;;;;4.30;4.10;;;;;;;;;;5996998;29;20073;-88
2023/10/17 13:26:46;;;;;;;5.00;4.72;;;;;;;;;;5992253;29;20049;-88
2023/10/17 13:29:48;;;;;;;4.50;4.20;;;;;;;;;;5990961;29;20239;-89
2023/10/17 13:32:52;;;;;;;5.18;4.88;;;;;;;;;;5994545;29;20065;-88
2023/10/17 13:35:54;;;;;;;5.38;5.07;;;;;;;;;;5992089;29;20173;-88
2023/10/17 13:38:56;;;;;;;4.53;4.10;;;;;;;;;;5991268;29;20042;-88
2023/10/17 13:42:02;;;;;;;4.38;4.20;;;;;;;;;;5992880;29;20129;-88
2023/10/17 13:45:05;;;;;;;9.88;5.15;;;;;;;;;;5990630;29;20441;-88
2023/10/17 13:48:07;;;;;;;5.30;5.00;;;;;;;;;;5992700;29;20042;-88
2023/10/17 13:51:09;;;;;;;5.22;4.93;;;;;;;;;;5999201;29;20041;-88
2023/10/17 13:54:15;;;;;;;6.90;5.15;;;;;;;;;;5987098;29;20054;-88
2023/10/17 13:57:17;;;;;;;4.25;4.05;;;;;;;;;;5983680;29;20041;-88
2023/10/17 14:00:22;;;;;;;5.40;5.00;;;;;;;;;;5993665;29;20073;-88
2023/10/17 14:03:25;;;;;;;3.72;3.55;;;;;;;;;;5994345;29;20053;-88
2023/10/17 14:06:27;;;;;;;4.53;4.22;;;;;;;;;;5988303;29;20050;-88
2023/10/17 14:09:30;;;;;;;5.38;5.07;;;;;;;;;;5991674;29;20054;-88
2023/10/17 14:12:32;;;;;;;3.83;3.65;;;;;;;;;;5983862;29;20081;-88
2023/10/17 14:15:35;;;;;;;4.47;4.18;;;;;;;;;;5983425;29;20166;-88
2023/10/17 14:18:40;;;;;;;5.47;5.05;;;;;;;;;;5990435;29;20501;-88
2023/10/17 14:25:04;;;;;;;5.63;4.63;;;;;;;;;;5991917;29;20045;-89
2023/10/17 14:28:08;;;;;;;13.95;4.22;;;;;;;;;;6003335;29;20093;-88
2023/10/17 14:31:10;;;;;;;4.32;4.13;;;;;;;;;;5989611;29;20045;-88
2023/10/17 14:34:12;;;;;;;4.93;4.53;;;;;;;;;;5990182;29;20039;-89
2023/10/17 14:37:14;;;;;;;4.32;3.90;;;;;;;;;;5984048;29;20052;-89
2023/10/17 14:40:17;;;;;;;4.35;4.05;;;;;;;;;;5986959;29;20287;-89
2023/10/17 14:43:19;;;;;;;3.97;3.72;;;;;;;;;;5984520;29;20188;-88
2023/10/17 14:46:22;;;;;;;4.97;4.78;;;;;;;;;;5999615;29;20053;-89
2023/10/17 14:49:26;;;;;;;6.30;5.90;;;;;;;;;;6002063;29;20062;-87
2023/10/17 14:52:28;;;;;;;6.35;4.85;;;;;;;;;;5988582;29;20126;-89
2023/10/17 14:55:30;;;;;;;5.00;4.78;;;;;;;;;;5993682;29;20054;-90
2023/10/17 14:58:32;;;;;;;5.43;5.15;;;;;;;;;;5993197;29;20053;-89
2023/10/17 15:01:35;;;;;;;4.35;3.97;;;;;;;;;;6003511;29;20074;-89
2023/10/17 15:04:37;;;;;;;15.07;3.92;;;;;;;;;;5992163;29;20130;-89
2023/10/17 15:07:41;;;;;;;7.88;5.32;;;;;;;;;;5992817;29;20149;-89
2023/10/17 15:10:45;;;;;;;4.55;4.32;;;;;;;;;;5992165;29;20060;-90
2023/10/17 15:13:47;;;;;;;4.50;4.30;;;;;;;;;;6005665;29;20042;-90
2023/10/17 15:16:49;;;;;;;5.53;5.05;;;;;;;;;;5992028;29;20042;-89
2023/10/17 15:19:51;;;;;;;5.22;4.93;;;;;;;;;;5998768;29;20159;-89
2023/10/17 15:22:54;;;;;;;5.13;4.75;;;;;;;;;;5994352;29;20075;-89
2023/10/17 15:25:56;;;;;;;5.80;5.32;;;;;;;;;;5986175;29;20046;-89
2023/10/17 15:28:58;;;;;;;4.38;4.10;;;;;;;;;;6000370;29;20046;-89
2023/10/17 15:32:01;;;;;;;6.13;5.63;;;;;;;;;;6001717;29;20073;-89
2023/10/17 15:35:04;;;;;;;5.53;5.13;;;;;;;;;;5996571;29;20614;-89
2023/10/17 15:38:06;;;;;;;5.50;4.97;;;;;;;;;;5993913;29;20070;-89
2023/10/17 15:41:21;;;;;;;5.47;5.15;;;;;;;;;;5992788;29;20050;-89
2023/10/17 15:44:22;;;;;;;3.53;3.42;;;;;;;;;;5992998;29;20038;-88
2023/10/17 15:47:24;;;;;;;6.57;5.70;;;;;;;;;;5994192;29;20054;-89
2023/10/17 15:50:26;;;;;;;5.38;4.97;;;;;;;;;;5996980;29;20042;-89
2023/10/17 15:53:29;;;;;;;6.18;5.22;;;;;;;;;;5985272;29;20050;-89
2023/10/17 15:56:31;;;;;;;5.18;4.82;;;;;;;;;;5986776;29;20074;-89
2023/10/17 15:59:33;;;;;;;5.60;5.15;;;;;;;;;;5997681;29;20044;-88
2023/10/17 16:02:34;;;;;;;4.72;4.53;;;;;;;;;;5995066;29;20049;-89
2023/10/17 16:05:36;;;;;;;5.88;5.47;;;;;;;;;;5982980;29;20050;-90
2023/10/17 16:08:38;;;;;;;4.80;4.60;;;;;;;;;;5992223;29;20046;-89
2023/10/17 16:11:42;;;;;;;5.25;5.00;;;;;;;;;;5989518;29;20059;-89
2023/10/17 16:14:44;;;;;;;8.80;5.93;;;;;;;;;;5988704;29;20563;-90
2023/10/17 16:17:47;;;;;;;7.55;5.40;;;;;;;;;;5994103;29;20054;-89
2023/10/17 16:20:49;;;;;;;5.18;4.70;;;;;;;;;;5992200;29;20041;-90
2023/10/17 16:23:51;;;;;;;6.55;6.05;;;;;;;;;;5986560;29;20082;-89
2023/10/17 16:26:53;;;;;;;5.55;5.05;;;;;;;;;;5984508;29;20125;-90
2023/10/17 16:29:57;;;;;;;5.28;5.07;;;;;;;;;;5992126;29;20133;-90
2023/10/17 16:32:59;;;;;;;5.07;4.65;;;;;;;;;;5983740;29;20137;-89
2023/10/17 16:36:02;;;;;;;6.00;5.60;;;;;;;;;;5992048;29;20079;-89
2023/10/17 16:39:04;;;;;;;5.47;4.97;;;;;;;;;;5996359;29;20054;-89
2023/10/17 16:42:06;;;;;;;6.88;6.38;;;;;;;;;;5982620;29;20501;-89
2023/10/17 16:45:08;;;;;;;6.75;6.22;;;;;;;;;;5979546;29;20765;-89
2023/10/17 16:48:10;;;;;;;7.25;6.75;;;;;;;;;;5992533;29;20537;-89
2023/10/17 16:51:16;;;;;;;9.02;7.07;;;;;;;;;;5987955;29;20050;-89
2023/10/17 16:54:17;;;;;;;7.47;6.90;;;;;;;;;;5981787;29;20038;-90
2023/10/17 16:57:25;;;;;;;6.72;6.35;;;;;;;;;;5988892;29;20050;-89
2023/10/17 17:00:27;;;;;;;7.75;6.57;;;;;;;;;;5982447;29;20050;-89
2023/10/17 17:03:29;;;;;;;7.07;6.63;;;;;;;;;;5995681;29;20231;-89
2023/10/17 17:06:32;;;;;;;6.80;6.40;;;;;;;;;;5986268;29;20078;-90
2023/10/17 17:09:36;;;;;;;5.05;4.82;;;;;;;;;;5999635;29;20078;-90
2023/10/17 17:12:37;;;;;;;6.47;6.07;;;;;;;;;;5987101;29;20201;-90
2023/10/17 17:15:45;;;;;;;7.47;6.85;;;;;;;;;;5980494;29;20054;-89
2023/10/17 17:18:48;;;;;;;7.63;6.93;;;;;;;;;;5996057;29;20417;-89
2023/10/17 17:21:50;;;;;;;8.23;6.63;;;;;;;;;;5987571;29;20054;-89
2023/10/17 17:24:54;;;;;;;9.75;8.95;;;;;;;;;;5997518;29;20751;-89
2023/10/17 17:27:59;;;;;;;7.95;7.45;;;;;;;;;;5993895;29;20054;-89
2023/10/17 17:31:05;;;;;;;7.85;7.32;;;;;;;;;;5999679;29;20133;-90
2023/10/17 17:34:07;;;;;;;9.48;8.55;;;;;;;;;;5998212;29;20046;-90
2023/10/17 17:37:09;;;;;;;11.45;9.98;;;;;;;;;;5999560;29;20049;-89
2023/10/17 17:40:11;;;;;;;8.07;7.47;;;;;;;;;;5985719;29;20035;-90
2023/10/17 17:43:14;;;;;;;9.00;8.10;;;;;;;;;;5978672;29;20199;-89
2023/10/17 17:46:16;;;;;;;8.70;7.43;;;;;;;;;;5990824;29;20046;-90
2023/10/17 17:49:18;;;;;;;8.45;7.88;;;;;;;;;;5985415;29;20081;-90
2023/10/17 17:52:20;;;;;;;14.20;7.80;;;;;;;;;;6000623;29;20057;-89
2023/10/17 17:55:22;;;;;;;7.28;6.88;;;;;;;;;;5988601;29;20053;-89
2023/10/17 17:58:27;;;;;;;21.65;7.13;;;;;;;;;;5994110;29;20046;-89
2023/10/17 18:01:32;;;;;;;11.55;8.18;;;;;;;;;;5982902;29;20054;-89
2023/10/17 18:04:34;;;;;;;8.95;6.60;;;;;;;;;;5990939;29;20054;-89
2023/10/17 18:07:36;;;;;;;6.03;5.72;;;;;;;;;;5989255;29;20520;-89
2023/10/17 18:10:38;;;;;;;7.65;7.07;;;;;;;;;;5993066;29;20050;-89
2023/10/17 18:13:40;;;;;;;7.53;6.93;;;;;;;;;;5987710;29;20535;-90
2023/10/17 18:16:42;;;;;;;6.53;6.22;;;;;;;;;;5985381;29;20049;-89
2023/10/17 18:19:44;;;;;;;6.25;5.80;;;;;;;;;;5984150;29;20084;-89
2023/10/17 18:22:47;;;;;;;7.72;7.28;;;;;;;;;;5990193;29;20053;-89
2023/10/17 18:25:49;;;;;;;7.32;6.75;;;;;;;;;;5978123;29;20566;-89
2023/10/17 18:28:51;;;;;;;6.53;6.03;;;;;;;;;;5980440;29;20455;-89
2023/10/17 18:31:53;;;;;;;7.93;7.15;;;;;;;;;;5986894;29;20061;-89
2023/10/17 18:34:57;;;;;;;5.85;5.45;;;;;;;;;;5990811;29;20047;-89
2023/10/17 18:37:59;;;;;;;6.03;5.68;;;;;;;;;;5992265;29;20045;-89
2023/10/17 18:41:01;;;;;;;7.70;7.20;;;;;;;;;;5989552;29;20097;-89
2023/10/17 18:44:03;;;;;;;8.23;7.63;;;;;;;;;;5988475;29;20050;-89
2023/10/17 18:47:05;;;;;;;7.82;7.13;;;;;;;;;;5989413;29;20124;-89
2023/10/17 18:50:10;;;;;;;7.55;6.00;;;;;;;;;;6000391;29;20523;-89
2023/10/17 18:53:13;;;;;;;8.80;7.28;;;;;;;;;;5992979;29;20082;-90
2023/10/17 18:56:15;;;;;;;6.47;6.07;;;;;;;;;;5987953;29;20109;-89
2023/10/17 18:59:19;;;;;;;8.15;7.57;;;;;;;;;;5983311;29;20046;-89
2023/10/17 19:02:21;;;;;;;9.88;8.60;;;;;;;;;;5981157;29;20057;-89
2023/10/17 19:05:27;;;;;;;7.95;7.45;;;;;;;;;;5983727;29;20608;-89
2023/10/17 19:08:30;;;;;;;6.55;6.25;;;;;;;;;;5994758;29;20199;-90
2023/10/17 19:11:31;;;;;;;7.28;6.95;;;;;;;;;;5989531;29;20061;-90
2023/10/17 19:14:34;;;;;;;7.88;7.35;;;;;;;;;;5987892;29;20141;-90
2023/10/17 19:17:36;;;;;;;8.07;7.38;;;;;;;;;;5997336;29;20388;-90
2023/10/17 19:20:44;;;;;;;7.30;6.50;;;;;;;;;;5991047;29;20055;-90
2023/10/17 19:23:48;;;;;;;8.48;7.68;;;;;;;;;;5992605;29;20073;-90
2023/10/17 19:26:51;;;;;;;8.95;6.75;;;;;;;;;;5979562;29;20062;-89
2023/10/17 19:29:54;;;;;;;5.60;5.20;;;;;;;;;;5981199;29;20109;-90
2023/10/17 19:32:57;;;;;;;7.28;6.72;;;;;;;;;;5987996;29;20113;-89
2023/10/17 19:35:59;;;;;;;7.43;7.10;;;;;;;;;;5984028;29;20049;-89
2023/10/17 19:39:06;;;;;;;8.43;7.85;;;;;;;;;;5981015;29;20069;-90
2023/10/17 19:42:08;;;;;;;6.95;6.45;;;;;;;;;;5984655;29;20051;-90
2023/10/17 19:45:10;;;;;;;9.00;8.20;;;;;;;;;;5976188;29;20046;-90
2023/10/17 19:48:11;;;;;;;7.60;7.10;;;;;;;;;;5991962;29;20077;-90
2023/10/17 19:51:13;;;;;;;6.75;6.43;;;;;;;;;;5991436;29;20053;-90
2023/10/17 19:54:15;;;;;;;7.82;7.40;;;;;;;;;;5987541;29;20042;-90
2023/10/17 19:57:17;;;;;;;6.88;6.47;;;;;;;;;;5977899;29;20464;-90
2023/10/17 20:00:22;;;;;;;9.45;8.77;;;;;;;;;;5985101;29;20326;-89
2023/10/17 20:03:25;;;;;;;6.25;5.68;;;;;;;;;;5969902;29;20053;-89
2023/10/17 20:06:29;;;;;;;7.57;7.18;;;;;;;;;;5983468;29;20058;-89
2023/10/17 20:09:34;;;;;;;6.93;6.55;;;;;;;;;;5993297;29;20058;-90
2023/10/17 20:12:41;;;;;;;7.15;6.57;;;;;;;;;;5981191;29;20054;-89
2023/10/17 20:15:43;;;;;;;7.18;6.57;;;;;;;;;;5988136;29;20129;-90
2023/10/17 20:18:45;;;;;;;8.15;7.60;;;;;;;;;;5990518;29;20046;-90
2023/10/17 20:21:47;;;;;;;8.63;7.95;;;;;;;;;;5990605;29;20062;-90
2023/10/17 20:24:49;;;;;;;11.55;6.75;;;;;;;;;;5983402;29;20041;-90
2023/10/17 20:27:52;;;;;;;7.57;7.07;;;;;;;;;;5985460;29;20105;-90
2023/10/17 20:30:54;;;;;;;9.98;7.28;;;;;;;;;;6007612;29;20042;-90
2023/10/17 20:33:57;;;;;;;9.13;7.13;;;;;;;;;;5989573;29;20198;-90
2023/10/17 20:36:59;;;;;;;7.45;6.75;;;;;;;;;;5989214;29;20054;-90
2023/10/17 20:40:11;;;;;;;6.28;5.72;;;;;;;;;;5984065;29;20050;-89
2023/10/17 20:43:13;;;;;;;6.75;6.45;;;;;;;;;;5987722;29;20133;-90